createdAt,value
2022-08-30T00:01:32.610Z,16.39
2022-08-30T00:04:35.028Z,16.42
2022-08-30T00:07:36.662Z,16.39
2022-08-30T00:10:38.699Z,16.32
2022-08-30T00:13:41.187Z,16.18
2022-08-30T00:16:42.681Z,16.02
2022-08-30T00:19:44.418Z,15.99
2022-08-30T00:22:46.167Z,15.99
2022-08-30T00:25:47.859Z,16.06
2022-08-30T00:28:49.352Z,16.11
2022-08-30T00:31:50.880Z,16.11
2022-08-30T00:34:52.480Z,16.05
2022-08-30T00:37:54.031Z,16.06
2022-08-30T00:40:55.572Z,15.88
2022-08-30T00:43:57.196Z,15.83
2022-08-30T00:46:58.766Z,15.78
2022-08-30T00:50:00.359Z,15.82
2022-08-30T00:53:03.165Z,15.83
2022-08-30T00:56:04.968Z,15.86
2022-08-30T00:59:06.631Z,15.92
2022-08-30T01:02:08.236Z,15.87
2022-08-30T01:05:11.010Z,15.76
2022-08-30T01:08:18.477Z,15.74
2022-08-30T01:11:21.537Z,15.74
2022-08-30T01:14:25.838Z,15.80
2022-08-30T01:17:27.972Z,15.81
2022-08-30T01:20:54.588Z,15.79
2022-08-30T01:23:56.333Z,15.76
2022-08-30T01:26:58.020Z,15.66
2022-08-30T01:29:59.515Z,15.60
2022-08-30T01:33:02.674Z,15.61
2022-08-30T01:36:06.499Z,15.60
2022-08-30T01:39:08.649Z,15.60
2022-08-30T01:42:10.168Z,15.54
2022-08-30T01:45:12.009Z,15.53
2022-08-30T01:48:13.524Z,15.48
2022-08-30T01:51:15.251Z,15.52
2022-08-30T01:54:16.822Z,15.52
2022-08-30T01:57:20.966Z,15.47
2022-08-30T02:00:22.521Z,15.41
2022-08-30T02:03:24.664Z,15.40
2022-08-30T02:06:26.673Z,15.47
2022-08-30T02:09:28.068Z,15.50
2022-08-30T02:12:30.418Z,15.32
2022-08-30T02:15:33.034Z,15.21
2022-08-30T02:18:43.313Z,15.16
2022-08-30T02:21:44.795Z,15.18
2022-08-30T02:24:46.533Z,15.19
2022-08-30T02:27:48.364Z,15.18
2022-08-30T02:30:49.950Z,15.15
2022-08-30T02:33:51.982Z,15.13
2022-08-30T02:36:53.502Z,15.17
2022-08-30T02:39:55.021Z,15.12
2022-08-30T02:42:57.003Z,15.09
2022-08-30T02:45:59.169Z,14.98
2022-08-30T02:49:13.171Z,14.93
2022-08-30T02:52:27.924Z,14.99
2022-08-30T02:55:29.661Z,14.97
2022-08-30T02:58:31.154Z,15.00
2022-08-30T03:01:36.541Z,14.95
2022-08-30T03:04:39.343Z,14.89
2022-08-30T03:07:41.337Z,14.83
2022-08-30T03:10:42.850Z,14.83
2022-08-30T03:13:44.339Z,14.78
2022-08-30T03:16:45.911Z,14.75
2022-08-30T03:19:47.473Z,14.68
2022-08-30T03:22:49.108Z,14.64
2022-08-30T03:25:50.683Z,14.59
2022-08-30T03:28:52.219Z,14.59
2022-08-30T03:31:53.990Z,14.58
2022-08-30T03:34:55.627Z,14.51
2022-08-30T03:37:58.100Z,14.46
2022-08-30T03:41:00.135Z,14.51
2022-08-30T03:44:01.598Z,14.51
2022-08-30T03:47:04.023Z,14.43
2022-08-30T03:50:05.889Z,14.34
2022-08-30T03:53:07.539Z,14.36
2022-08-30T03:56:09.046Z,14.40
2022-08-30T03:59:10.560Z,14.39
2022-08-30T04:02:12.100Z,14.28
2022-08-30T04:05:14.758Z,14.25
2022-08-30T04:08:20.248Z,14.28
2022-08-30T04:11:22.024Z,14.34
2022-08-30T04:14:23.528Z,14.30
2022-08-30T04:17:25.048Z,14.25
2022-08-30T04:20:27.544Z,14.15
2022-08-30T04:23:29.263Z,14.18
2022-08-30T04:26:30.771Z,14.24
2022-08-30T04:29:32.931Z,14.20
2022-08-30T04:32:35.491Z,14.21
2022-08-30T04:35:37.207Z,14.25
2022-08-30T04:38:39.396Z,14.28
2022-08-30T04:41:40.946Z,14.30
2022-08-30T04:44:42.479Z,14.26
2022-08-30T04:47:43.997Z,14.20
2022-08-30T04:50:45.708Z,14.22
2022-08-30T04:53:47.259Z,14.21
2022-08-30T04:56:48.757Z,14.29
2022-08-30T04:59:50.298Z,14.32
2022-08-30T05:02:51.791Z,14.34
2022-08-30T05:05:53.411Z,14.27
2022-08-30T05:08:55.461Z,14.24
2022-08-30T05:11:57.054Z,14.31
2022-08-30T05:14:58.704Z,14.35
2022-08-30T05:18:00.324Z,14.34
2022-08-30T05:21:10.481Z,14.33
2022-08-30T05:24:12.098Z,14.35
2022-08-30T05:27:13.692Z,14.35
2022-08-30T05:30:15.686Z,14.41
2022-08-30T05:33:17.287Z,14.46
2022-08-30T05:36:19.671Z,14.49
2022-08-30T05:39:21.311Z,14.57
2022-08-30T05:42:23.698Z,14.65
2022-08-30T05:45:25.325Z,14.72
2022-08-30T05:48:26.918Z,14.75
2022-08-30T05:51:29.112Z,14.74
2022-08-30T05:54:30.707Z,14.77
2022-08-30T05:57:33.893Z,14.85
2022-08-30T06:00:38.075Z,14.94
2022-08-30T06:03:39.667Z,15.03
2022-08-30T06:06:42.446Z,15.14
2022-08-30T06:09:44.410Z,15.25
2022-08-30T06:12:45.819Z,15.37
2022-08-30T06:15:47.434Z,15.48
2022-08-30T06:18:49.038Z,15.60
2022-08-30T06:21:50.838Z,15.73
2022-08-30T06:24:59.354Z,15.90
2022-08-30T06:28:00.948Z,16.02
2022-08-30T06:31:05.377Z,16.16
2022-08-30T06:34:07.117Z,16.30
2022-08-30T06:37:08.646Z,16.41
2022-08-30T06:40:11.195Z,16.47
2022-08-30T06:43:12.758Z,16.56
2022-08-30T06:46:16.626Z,16.68
2022-08-30T06:49:18.268Z,16.80
2022-08-30T06:52:19.779Z,16.91
2022-08-30T06:55:21.371Z,17.03
2022-08-30T06:58:22.918Z,17.13
2022-08-30T07:01:25.822Z,17.22
2022-08-30T07:04:28.010Z,17.30
2022-08-30T07:07:29.515Z,17.38
2022-08-30T07:10:31.438Z,17.53
2022-08-30T07:13:33.766Z,17.68
2022-08-30T07:16:35.659Z,17.83
2022-08-30T07:19:37.235Z,17.97
2022-08-30T07:22:38.830Z,18.16
2022-08-30T07:25:41.387Z,18.27
2022-08-30T07:28:43.914Z,18.43
2022-08-30T07:31:45.595Z,18.64
2022-08-30T07:34:47.237Z,18.89
2022-08-30T07:37:53.316Z,19.09
2022-08-30T07:40:55.120Z,19.24
2022-08-30T07:43:56.609Z,19.59
2022-08-30T07:46:58.190Z,19.88
2022-08-30T07:50:00.611Z,20.13
2022-08-30T07:53:02.270Z,20.30
2022-08-30T07:56:04.761Z,20.49
2022-08-30T07:59:06.552Z,20.76
2022-08-30T08:02:07.989Z,20.99
2022-08-30T08:05:12.794Z,21.22
2022-08-30T08:08:18.138Z,21.52
2022-08-30T08:11:24.720Z,21.70
2022-08-30T08:14:26.412Z,21.96
2022-08-30T08:17:28.017Z,22.56
2022-08-30T08:20:29.497Z,23.38
2022-08-30T08:23:32.500Z,23.35
2022-08-30T08:26:35.807Z,23.55
2022-08-30T08:29:37.411Z,23.58
2022-08-30T08:32:39.550Z,23.59
2022-08-30T08:35:43.439Z,23.55
2022-08-30T08:38:45.143Z,23.71
2022-08-30T08:41:52.760Z,24.17
2022-08-30T08:45:07.450Z,24.58
2022-08-30T08:48:32.029Z,24.86
2022-08-30T08:52:05.790Z,24.92
2022-08-30T08:55:10.393Z,25.09
2022-08-30T08:58:26.234Z,25.21
2022-08-30T09:01:29.930Z,25.54
2022-08-30T09:04:34.690Z,25.39
2022-08-30T09:07:38.432Z,25.37
2022-08-30T09:10:50.582Z,25.47
2022-08-30T09:13:52.744Z,25.21
2022-08-30T09:17:02.854Z,25.15
2022-08-30T09:20:05.359Z,25.17
2022-08-30T09:23:16.106Z,25.40
2022-08-30T09:26:29.012Z,25.53
2022-08-30T09:29:31.473Z,25.22
2022-08-30T09:32:35.281Z,25.55
2022-08-30T09:35:48.341Z,25.53
2022-08-30T09:38:57.448Z,25.51
2022-08-30T09:42:28.987Z,25.77
2022-08-30T09:45:36.144Z,25.86
2022-08-30T09:48:47.425Z,25.73
2022-08-30T09:51:59.314Z,25.56
2022-08-30T09:55:19.857Z,25.56
2022-08-30T09:58:43.535Z,25.31
2022-08-30T10:01:47.598Z,25.35
2022-08-30T10:05:11.994Z,25.78
2022-08-30T10:08:16.510Z,26.13
2022-08-30T10:11:48.478Z,25.46
2022-08-30T10:14:51.469Z,25.43
2022-08-30T10:17:59.002Z,26.02
2022-08-30T10:21:18.932Z,26.21
2022-08-30T10:24:24.398Z,26.49
2022-08-30T10:27:30.181Z,26.43
2022-08-30T10:30:33.911Z,26.20
2022-08-30T10:33:41.147Z,26.40
2022-08-30T10:36:45.045Z,26.08
2022-08-30T10:39:48.958Z,26.31
2022-08-30T10:42:51.150Z,26.16
2022-08-30T10:45:53.689Z,26.30
2022-08-30T10:48:55.315Z,26.07
2022-08-30T10:52:11.981Z,25.68
2022-08-30T10:55:19.515Z,25.69
2022-08-30T10:58:21.165Z,25.64
2022-08-30T11:01:46.539Z,25.57
2022-08-30T11:04:53.240Z,25.50
2022-08-30T11:08:01.166Z,25.69
2022-08-30T11:11:31.036Z,26.05
2022-08-30T11:14:32.731Z,26.43
2022-08-30T11:17:55.035Z,26.98
2022-08-30T11:21:24.658Z,27.09
2022-08-30T11:24:26.313Z,27.23
2022-08-30T11:27:49.314Z,27.10
2022-08-30T11:30:53.223Z,27.26
2022-08-30T11:33:57.135Z,27.19
2022-08-30T11:37:03.336Z,27.77
2022-08-30T11:40:20.411Z,27.74
2022-08-30T11:43:34.029Z,26.92
2022-08-30T11:46:36.895Z,27.15
2022-08-30T11:50:09.888Z,27.39
2022-08-30T11:53:29.293Z,27.38
2022-08-30T11:56:49.136Z,27.64
2022-08-30T11:59:50.610Z,28.04
2022-08-30T12:02:59.359Z,28.46
2022-08-30T12:06:07.970Z,28.21
2022-08-30T12:09:11.314Z,28.13
2022-08-30T12:12:38.350Z,28.74
2022-08-30T12:16:22.040Z,28.51
2022-08-30T12:19:24.567Z,28.99
2022-08-30T12:22:27.092Z,29.41
2022-08-30T12:25:33.205Z,28.83
2022-08-30T12:28:34.724Z,29.18
2022-08-30T12:31:49.836Z,28.82
2022-08-30T12:34:56.454Z,29.30
2022-08-30T12:38:02.098Z,29.02
2022-08-30T12:41:05.612Z,29.13
2022-08-30T12:44:10.000Z,29.44
2022-08-30T12:47:12.693Z,29.44
2022-08-30T12:50:25.530Z,29.81
2022-08-30T12:53:45.744Z,30.35
2022-08-30T12:57:19.143Z,31.18
2022-08-30T13:00:35.093Z,31.25
2022-08-30T13:03:36.723Z,30.49
2022-08-30T13:06:39.775Z,30.31
2022-08-30T13:09:42.639Z,30.43
2022-08-30T13:13:01.101Z,29.84
2022-08-30T13:16:26.119Z,29.84
2022-08-30T13:19:39.438Z,30.14
2022-08-30T13:22:43.320Z,29.93
2022-08-30T13:25:45.076Z,30.01
2022-08-30T13:28:54.495Z,29.76
2022-08-30T13:31:57.097Z,29.84
2022-08-30T13:34:58.766Z,29.74
2022-08-30T13:38:00.867Z,29.67
2022-08-30T13:41:02.557Z,30.01
2022-08-30T13:44:13.553Z,30.28
2022-08-30T13:47:34.566Z,29.96
2022-08-30T13:50:36.865Z,29.93
2022-08-30T13:53:54.440Z,29.84
2022-08-30T13:56:56.314Z,30.65
2022-08-30T13:59:58.075Z,30.84
2022-08-30T14:03:00.204Z,31.18
2022-08-30T14:06:29.248Z,31.70
2022-08-30T14:09:23.653Z,31.17
2022-08-30T14:15:48.409Z,31.11
2022-08-30T14:18:51.284Z,31.39
2022-08-30T14:21:52.861Z,31.73
2022-08-30T14:24:54.514Z,31.47
2022-08-30T14:27:57.029Z,31.13
2022-08-30T14:30:58.646Z,30.58
2022-08-30T14:34:01.720Z,30.85
2022-08-30T14:37:06.789Z,30.92
2022-08-30T14:40:09.334Z,30.49
2022-08-30T14:43:10.980Z,29.64
2022-08-30T14:46:12.686Z,29.20
2022-08-30T14:49:14.440Z,28.90
2022-08-30T14:52:16.073Z,28.51
2022-08-30T14:55:17.722Z,28.54
2022-08-30T14:58:19.386Z,28.52
2022-08-30T15:01:22.366Z,28.38
2022-08-30T15:04:24.162Z,28.22
2022-08-30T15:07:26.855Z,28.10
2022-08-30T15:10:28.692Z,27.98
2022-08-30T15:13:30.300Z,27.89
2022-08-30T15:16:35.616Z,27.90
2022-08-30T15:19:37.356Z,27.72
2022-08-30T15:22:40.264Z,27.75
2022-08-30T15:25:43.108Z,27.77
2022-08-30T15:28:44.803Z,27.88
2022-08-30T15:31:49.836Z,27.85
2022-08-30T15:34:55.855Z,27.70
2022-08-30T15:37:57.778Z,27.61
2022-08-30T15:41:03.586Z,27.55
2022-08-30T15:44:05.993Z,27.58
2022-08-30T15:47:08.606Z,27.51
2022-08-30T15:50:10.320Z,27.58
2022-08-30T15:53:11.888Z,27.65
2022-08-30T15:56:13.988Z,27.72
2022-08-30T15:59:15.650Z,27.62
2022-08-30T16:02:17.291Z,27.58
2022-08-30T16:05:19.568Z,27.51
2022-08-30T16:08:21.117Z,27.50
2022-08-30T16:11:22.880Z,27.48
2022-08-30T16:14:24.550Z,27.52
2022-08-30T16:17:26.590Z,27.44
2022-08-30T16:20:28.236Z,27.38
2022-08-30T16:23:29.862Z,27.25
2022-08-30T16:26:35.466Z,27.17
2022-08-30T16:29:37.098Z,27.09
2022-08-30T16:32:39.041Z,27.08
2022-08-30T16:35:42.111Z,26.94
2022-08-30T16:38:44.667Z,26.88
2022-08-30T16:41:46.563Z,26.78
2022-08-30T16:44:49.872Z,26.78
2022-08-30T16:47:52.097Z,26.59
2022-08-30T16:50:53.762Z,26.40
2022-08-30T16:53:56.486Z,26.27
2022-08-30T16:56:58.103Z,26.10
2022-08-30T16:59:59.874Z,26.00
2022-08-30T17:03:01.452Z,25.97
2022-08-30T17:06:03.449Z,25.89
2022-08-30T17:09:06.389Z,25.82
2022-08-30T17:12:08.394Z,25.76
2022-08-30T17:15:10.850Z,25.61
2022-08-30T17:18:13.241Z,25.55
2022-08-30T17:21:15.799Z,25.50
2022-08-30T17:24:17.439Z,25.41
2022-08-30T17:27:19.527Z,25.26
2022-08-30T17:30:21.258Z,25.15
2022-08-30T17:33:22.969Z,25.06
2022-08-30T17:36:24.960Z,24.93
2022-08-30T17:39:26.938Z,24.80
2022-08-30T17:42:29.678Z,24.70
2022-08-30T17:45:31.648Z,24.52
2022-08-30T17:48:35.351Z,24.38
2022-08-30T17:51:40.813Z,24.21
2022-08-30T17:54:43.207Z,24.09
2022-08-30T17:57:44.890Z,23.94
2022-08-30T18:00:46.550Z,23.79
2022-08-30T18:03:57.108Z,23.66
2022-08-30T18:07:03.782Z,23.55
2022-08-30T18:10:05.684Z,23.42
2022-08-30T18:13:07.251Z,23.27
2022-08-30T18:16:10.254Z,23.15
2022-08-30T18:19:13.868Z,23.08
2022-08-30T18:22:16.209Z,22.91
2022-08-30T18:25:17.853Z,22.78
2022-08-30T18:28:19.544Z,22.74
2022-08-30T18:31:22.112Z,22.71
2022-08-30T18:34:23.789Z,22.57
2022-08-30T18:37:25.368Z,22.47
2022-08-30T18:40:27.053Z,22.37
2022-08-30T18:43:30.857Z,22.22
2022-08-30T18:46:32.862Z,22.17
2022-08-30T18:49:35.021Z,22.15
2022-08-30T18:52:36.797Z,22.10
2022-08-30T18:55:38.384Z,22.07
2022-08-30T18:58:40.493Z,22.10
2022-08-30T19:01:48.649Z,22.15
2022-08-30T19:04:50.801Z,22.10
2022-08-30T19:07:55.069Z,22.12
2022-08-30T19:14:19.036Z,21.92
2022-08-30T19:17:20.613Z,22.03
2022-08-30T19:20:22.498Z,22.24
2022-08-30T19:23:27.083Z,22.31
2022-08-30T19:26:28.834Z,22.40
2022-08-30T19:29:30.478Z,22.42
2022-08-30T19:32:32.509Z,22.52
2022-08-30T19:35:34.102Z,22.57
2022-08-30T19:38:35.916Z,22.79
2022-08-30T19:41:37.511Z,22.87
2022-08-30T19:44:39.119Z,22.96
2022-08-30T19:47:40.731Z,22.99
2022-08-30T19:50:42.350Z,22.96
2022-08-30T19:53:44.076Z,22.95
2022-08-30T19:56:45.660Z,22.95
2022-08-30T19:59:49.689Z,22.87
2022-08-30T20:02:52.075Z,22.86
2022-08-30T20:05:53.845Z,22.82
2022-08-30T20:08:56.546Z,22.79
2022-08-30T20:11:59.546Z,22.77
2022-08-30T20:15:02.536Z,22.76
2022-08-30T20:18:06.257Z,22.68
2022-08-30T20:21:26.232Z,22.69
2022-08-30T20:24:28.524Z,22.71
2022-08-30T20:24:31.987Z,22.06
2022-08-30T20:27:30.302Z,22.68
2022-08-30T20:30:32.365Z,22.64
2022-08-30T20:33:37.457Z,22.64
2022-08-30T20:36:40.379Z,22.63
2022-08-30T20:39:41.951Z,22.58
2022-08-30T20:42:45.420Z,22.53
2022-08-30T20:45:47.291Z,22.45
2022-08-30T20:48:48.899Z,22.36
2022-08-30T20:51:54.111Z,22.30
2022-08-30T20:54:56.065Z,22.23
2022-08-30T20:57:57.480Z,22.17
2022-08-30T21:00:59.058Z,22.23
2022-08-30T21:04:00.627Z,22.25
2022-08-30T21:07:02.096Z,22.18
2022-08-30T21:10:04.756Z,22.11
2022-08-30T21:13:06.260Z,22.09
2022-08-30T21:16:07.746Z,21.98
2022-08-30T21:19:09.281Z,21.89
2022-08-30T21:22:10.794Z,21.87
2022-08-30T21:25:12.356Z,21.92
2022-08-30T21:28:13.803Z,21.90
2022-08-30T21:31:20.710Z,21.94
2022-08-30T21:34:22.374Z,21.94
2022-08-30T21:37:23.926Z,21.90
2022-08-30T21:40:25.465Z,21.86
2022-08-30T21:43:26.860Z,21.82
2022-08-30T21:46:28.787Z,21.64
2022-08-30T21:49:30.423Z,21.57
2022-08-30T21:52:32.034Z,21.46
2022-08-30T21:55:33.563Z,21.33
2022-08-30T21:58:35.134Z,21.05
2022-08-30T22:01:37.710Z,20.95
2022-08-30T22:04:40.555Z,20.85
2022-08-30T22:07:42.060Z,20.53
2022-08-30T22:10:44.401Z,20.16
2022-08-30T22:13:48.281Z,19.94
2022-08-30T22:16:50.082Z,20.02
2022-08-30T22:19:51.628Z,19.85
2022-08-30T22:22:53.118Z,19.84
2022-08-30T22:25:54.638Z,19.64
2022-08-30T22:28:56.162Z,19.41
2022-08-30T22:31:58.272Z,19.42
2022-08-30T22:34:59.879Z,19.49
2022-08-30T22:38:01.419Z,19.47
2022-08-30T22:41:02.954Z,19.43
2022-08-30T22:44:04.484Z,19.45
2022-08-30T22:47:06.341Z,19.43
2022-08-30T22:50:08.198Z,19.35
2022-08-30T22:53:09.895Z,19.35
2022-08-30T22:56:15.295Z,19.24
2022-08-30T22:59:16.825Z,19.10
2022-08-30T23:02:18.490Z,18.97
2022-08-30T23:05:20.457Z,18.76
2022-08-30T23:08:21.946Z,18.72
2022-08-30T23:11:23.691Z,18.64
2022-08-30T23:14:25.208Z,18.58
2022-08-30T23:17:26.698Z,18.51
2022-08-30T23:20:32.792Z,18.45
2022-08-30T23:23:52.910Z,18.49
2022-08-30T23:27:13.254Z,18.45
2022-08-30T23:30:33.428Z,18.54
2022-08-30T23:33:53.828Z,18.59
2022-08-30T23:37:13.872Z,18.56
2022-08-30T23:40:33.974Z,18.20
2022-08-30T23:43:54.284Z,17.91
2022-08-30T23:47:14.591Z,17.66
2022-08-30T23:50:34.687Z,17.62
2022-08-30T23:53:54.906Z,17.59
2022-08-30T23:57:15.054Z,17.47
